createdAt,value
2018-04-01T00:00:05.776Z,7.67
2018-04-01T00:01:06.107Z,7.63
2018-04-01T00:02:05.822Z,7.58
2018-04-01T00:03:05.995Z,7.58
2018-04-01T00:04:05.848Z,7.49
2018-04-01T00:05:05.986Z,7.59
2018-04-01T00:06:05.706Z,7.56
2018-04-01T00:07:05.971Z,7.52
2018-04-01T00:08:05.638Z,7.56
2018-04-01T00:09:05.893Z,7.47
2018-04-01T00:10:05.817Z,7.44
2018-04-01T00:11:05.872Z,7.44
2018-04-01T00:12:05.898Z,7.37
2018-04-01T00:13:05.251Z,7.35
2018-04-01T00:14:05.908Z,7.26
2018-04-01T00:15:05.792Z,7.31
2018-04-01T00:16:05.169Z,7.32
2018-04-01T00:17:05.517Z,7.27
2018-04-01T00:18:05.431Z,7.32
2018-04-01T00:19:05.730Z,7.31
2018-04-01T00:20:05.161Z,7.29
2018-04-01T00:21:05.342Z,7.32
2018-04-01T00:22:05.360Z,7.24
2018-04-01T00:23:05.278Z,7.24
2018-04-01T00:24:05.569Z,7.17
2018-04-01T00:25:05.551Z,7.17
2018-04-01T00:26:05.226Z,7.19
2018-04-01T00:27:05.331Z,7.17
2018-04-01T00:28:04.894Z,7.15
2018-04-01T00:29:05.537Z,7.26
2018-04-01T00:30:05.186Z,7.23
2018-04-01T00:31:05.503Z,7.22
2018-04-01T00:32:05.615Z,7.22
2018-04-01T00:33:05.212Z,7.17
2018-04-01T00:34:05.384Z,7.17
2018-04-01T00:35:05.125Z,7.23
2018-04-01T00:36:05.348Z,7.09
2018-04-01T00:37:05.098Z,7.17
2018-04-01T00:38:05.400Z,7.12
2018-04-01T00:39:05.062Z,7.19
2018-04-01T00:40:04.762Z,7.12
2018-04-01T00:41:05.343Z,7.19
2018-04-01T00:42:05.274Z,7.13
2018-04-01T00:43:04.957Z,7.16
2018-04-01T00:44:05.000Z,7.15
2018-04-01T00:45:04.914Z,7.16
2018-04-01T00:46:04.672Z,7.16
2018-04-01T00:47:05.191Z,7.19
2018-04-01T00:48:04.919Z,7.22
2018-04-01T00:49:05.183Z,7.15
2018-04-01T00:50:04.655Z,7.15
2018-04-01T00:51:04.795Z,7.16
2018-04-01T00:52:05.108Z,7.13
2018-04-01T00:53:04.878Z,7.24
2018-04-01T00:54:04.494Z,7.26
2018-04-01T00:55:04.829Z,7.13
2018-04-01T00:56:04.983Z,7.24
2018-04-01T00:57:05.235Z,7.34
2018-04-01T00:58:04.844Z,7.31
2018-04-01T00:59:04.830Z,7.29
2018-04-01T01:00:04.813Z,7.31
2018-04-01T01:01:04.518Z,7.31
2018-04-01T01:02:04.767Z,7.35
2018-04-01T01:03:04.489Z,7.31
2018-04-01T01:04:04.207Z,7.27
2018-04-01T01:05:04.468Z,7.35
2018-04-01T01:06:04.689Z,7.34
2018-04-01T01:07:04.678Z,7.31
2018-04-01T01:08:04.394Z,7.35
2018-04-01T01:09:04.633Z,7.35
2018-04-01T01:10:04.087Z,7.38
2018-04-01T01:11:04.610Z,7.35
2018-04-01T01:12:04.319Z,7.32
2018-04-01T01:13:04.032Z,7.35
2018-04-01T01:14:04.278Z,7.31
2018-04-01T01:15:04.524Z,7.32
2018-04-01T01:16:04.242Z,7.34
2018-04-01T01:17:04.484Z,7.34
2018-04-01T01:18:03.969Z,7.35
2018-04-01T01:19:04.189Z,7.31
2018-04-01T01:20:04.167Z,7.29
2018-04-01T01:21:03.884Z,7.27
2018-04-01T01:22:04.125Z,7.32
2018-04-01T01:23:04.374Z,7.34
2018-04-01T01:24:03.824Z,7.38
2018-04-01T01:25:03.806Z,7.31
2018-04-01T01:26:04.053Z,7.32
2018-04-01T01:27:04.300Z,7.32
2018-04-01T01:28:04.017Z,7.34
2018-04-01T01:29:03.732Z,7.29
2018-04-01T01:30:03.716Z,7.35
2018-04-01T01:31:03.964Z,7.32
2018-04-01T01:32:03.944Z,7.27
2018-04-01T01:33:03.657Z,7.29
2018-04-01T01:34:03.914Z,7.32
2018-04-01T01:35:04.155Z,7.24
2018-04-01T01:36:03.930Z,7.24
2018-04-01T01:37:03.857Z,7.37
2018-04-01T01:38:03.829Z,7.23
2018-04-01T01:39:03.808Z,7.29
2018-04-01T01:40:03.791Z,7.15
2018-04-01T01:41:03.772Z,7.19
2018-04-01T01:42:04.019Z,7.23
2018-04-01T01:43:03.735Z,7.24
2018-04-01T01:44:03.981Z,7.2
2018-04-01T01:45:03.959Z,7.29
2018-04-01T01:46:03.677Z,7.15
2018-04-01T01:47:03.389Z,7.22
2018-04-01T01:48:03.375Z,7.15
2018-04-01T01:49:03.886Z,7.13
2018-04-01T01:50:03.623Z,7.16
2018-04-01T01:51:03.846Z,7.15
2018-04-01T01:52:03.568Z,7.15
2018-04-01T01:53:03.556Z,7.12
2018-04-01T01:54:03.535Z,7.22
2018-04-01T01:55:03.514Z,7.15
2018-04-01T01:56:03.755Z,7.24
2018-04-01T01:57:03.743Z,7.15
2018-04-01T01:58:03.452Z,7.2
2018-04-01T01:59:03.703Z,7.2
2018-04-01T02:00:03.150Z,7.13
2018-04-01T02:01:03.394Z,7.16
2018-04-01T02:02:03.375Z,7.19
2018-04-01T02:03:03.626Z,7.15
2018-04-01T02:04:03.620Z,7.13
2018-04-01T02:05:03.321Z,7.16
2018-04-01T02:06:03.302Z,7.09
2018-04-01T02:07:03.289Z,6.97
2018-04-01T02:08:02.998Z,7.02
2018-04-01T02:09:03.252Z,7.05
2018-04-01T02:10:03.160Z,6.94
2018-04-01T02:11:03.215Z,6.97
2018-04-01T02:12:03.504Z,6.99
2018-04-01T02:13:03.168Z,6.98
2018-04-01T02:14:03.415Z,6.98
2018-04-01T02:15:03.403Z,7.05
2018-04-01T02:16:03.386Z,6.91
2018-04-01T02:17:03.103Z,6.95
2018-04-01T02:18:03.073Z,6.98
2018-04-01T02:19:03.321Z,7.01
2018-04-01T02:20:03.303Z,6.97
2018-04-01T02:21:02.759Z,6.98
2018-04-01T02:22:03.282Z,6.99
2018-04-01T02:23:02.988Z,7.01
2018-04-01T02:24:03.239Z,6.97
2018-04-01T02:25:02.971Z,7.04
2018-04-01T02:26:02.671Z,6.98
2018-04-01T02:27:03.174Z,7.02
2018-04-01T02:28:02.626Z,7.04
2018-04-01T02:29:02.875Z,7.04
2018-04-01T02:30:02.584Z,7.02
2018-04-01T02:31:02.832Z,6.98
2018-04-01T02:32:02.817Z,6.94
2018-04-01T02:33:03.073Z,7.02
2018-04-01T02:34:02.773Z,6.94
2018-04-01T02:35:02.769Z,6.94
2018-04-01T02:36:03.017Z,7.04
2018-04-01T02:37:02.714Z,6.99
2018-04-01T02:38:02.702Z,6.95
2018-04-01T02:39:02.418Z,6.94
2018-04-01T02:40:02.935Z,6.98
2018-04-01T02:41:02.652Z,6.99
2018-04-01T02:42:02.903Z,6.95
2018-04-01T02:43:02.878Z,6.99
2018-04-01T02:44:02.852Z,7.04
2018-04-01T02:45:02.565Z,7.07
2018-04-01T02:46:02.285Z,7.01
2018-04-01T02:47:02.528Z,7.01
2018-04-01T02:48:02.791Z,6.98
2018-04-01T02:49:02.758Z,7.01
2018-04-01T02:50:02.474Z,7.05
2018-04-01T02:51:02.744Z,7.01
2018-04-01T02:52:02.447Z,6.99
2018-04-01T02:53:02.424Z,7.02
2018-04-01T02:54:02.196Z,7.05
2018-04-01T02:55:02.650Z,7.02
2018-04-01T02:56:02.378Z,7.05
2018-04-01T02:57:02.072Z,7.12
2018-04-01T02:58:02.608Z,7.02
2018-04-01T02:59:02.035Z,6.94
2018-04-01T03:00:02.294Z,7.01
2018-04-01T03:01:02.536Z,7.09
2018-04-01T03:02:02.519Z,7.04
2018-04-01T03:03:02.230Z,6.99
2018-04-01T03:04:02.494Z,7.09
2018-04-01T03:05:02.194Z,7.04
2018-04-01T03:06:02.445Z,7.12
2018-04-01T03:07:02.426Z,7.13
2018-04-01T03:08:02.411Z,7.07
2018-04-01T03:09:02.385Z,7.04
2018-04-01T03:10:02.372Z,7.12
2018-04-01T03:11:02.142Z,7.04
2018-04-01T03:12:02.061Z,7.13
2018-04-01T03:13:02.311Z,7.07
2018-04-01T03:14:02.020Z,7.12
2018-04-01T03:15:01.740Z,7.19
2018-04-01T03:16:01.717Z,7.19
2018-04-01T03:17:02.235Z,7.2
2018-04-01T03:18:01.948Z,7.2
2018-04-01T03:19:01.669Z,7.17
2018-04-01T03:20:01.914Z,7.17
2018-04-01T03:21:01.896Z,7.16
2018-04-01T03:22:02.143Z,7.15
2018-04-01T03:23:01.589Z,7.22
2018-04-01T03:24:01.841Z,7.15
2018-04-01T03:25:02.088Z,7.23
2018-04-01T03:26:01.805Z,7.2
2018-04-01T03:27:01.781Z,7.15
2018-04-01T03:28:01.760Z,7.15
2018-04-01T03:29:01.751Z,7.16
2018-04-01T03:30:01.735Z,7.12
2018-04-01T03:31:01.984Z,7.17
2018-04-01T03:32:01.965Z,7.16
2018-04-01T03:33:01.680Z,7.12
2018-04-01T03:34:01.382Z,7.13
2018-04-01T03:35:01.368Z,7.16
2018-04-01T03:36:01.620Z,7.12
2018-04-01T03:37:01.594Z,7.12
2018-04-01T03:38:01.839Z,7.16
2018-04-01T03:39:01.559Z,7.12
2018-04-01T03:40:01.799Z,7.08
2018-04-01T03:41:01.794Z,7.02
2018-04-01T03:42:01.781Z,7.08
2018-04-01T03:43:01.208Z,6.95
2018-04-01T03:44:01.201Z,7.09
2018-04-01T03:45:01.704Z,7.02
2018-04-01T03:46:01.711Z,6.97
2018-04-01T03:47:01.460Z,6.99
2018-04-01T03:48:01.395Z,7.01
2018-04-01T03:49:01.105Z,6.91
2018-04-01T03:50:01.673Z,6.99
2018-04-01T03:51:01.603Z,6.98
2018-04-01T03:52:01.314Z,7.02
2018-04-01T03:53:01.305Z,6.98
2018-04-01T03:54:01.546Z,6.95
2018-04-01T03:55:01.261Z,6.99
2018-04-01T03:56:01.496Z,7.01
2018-04-01T03:57:01.483Z,6.95
2018-04-01T03:58:01.198Z,6.87
2018-04-01T03:59:01.181Z,6.94
2018-04-01T04:00:01.432Z,6.9
2018-04-01T04:01:01.402Z,6.95
2018-04-01T04:02:01.387Z,6.89
2018-04-01T04:03:01.101Z,6.97
2018-04-01T04:04:00.820Z,6.98
2018-04-01T04:05:01.060Z,7.01
2018-04-01T04:06:01.046Z,6.97
2018-04-01T04:07:00.759Z,6.95
2018-04-01T04:08:01.270Z,6.98
2018-04-01T04:09:01.264Z,6.86
2018-04-01T04:10:01.169Z,6.91
2018-04-01T04:11:00.945Z,6.86
2018-04-01T04:12:01.197Z,6.83
2018-04-01T04:13:00.912Z,6.76
2018-04-01T04:14:00.896Z,6.77
2018-04-01T04:15:00.876Z,6.79
2018-04-01T04:16:01.124Z,6.69
2018-04-01T04:17:00.838Z,6.73
2018-04-01T04:18:00.814Z,6.73
2018-04-01T04:19:01.069Z,6.68
2018-04-01T04:20:00.520Z,6.69
2018-04-01T04:21:01.039Z,6.56
2018-04-01T04:22:00.746Z,6.63
2018-04-01T04:23:00.986Z,6.65
2018-04-01T04:24:00.968Z,6.62
2018-04-01T04:25:00.414Z,6.63
2018-04-01T04:26:00.675Z,6.61
2018-04-01T04:27:00.918Z,6.61
2018-04-01T04:28:00.626Z,6.58
2018-04-01T04:29:00.878Z,6.58
2018-04-01T04:30:00.856Z,6.54
2018-04-01T04:31:00.936Z,6.51
2018-04-01T04:32:00.570Z,6.63
2018-04-01T04:33:00.272Z,6.62
2018-04-01T04:34:00.245Z,6.62
2018-04-01T04:35:00.769Z,6.56
2018-04-01T04:36:00.661Z,6.58
2018-04-01T04:37:00.457Z,6.63
2018-04-01T04:38:00.432Z,6.59
2018-04-01T04:39:00.690Z,6.63
2018-04-01T04:40:00.655Z,6.62
2018-04-01T04:41:00.373Z,6.63
2018-04-01T04:42:00.358Z,6.73
2018-04-01T04:43:00.719Z,6.76
2018-04-01T04:44:00.585Z,6.65
2018-04-01T04:45:00.410Z,6.76
2018-04-01T04:46:00.016Z,6.66
2018-04-01T04:47:00.540Z,6.73
2018-04-01T04:47:59.977Z,6.71
2018-04-01T04:49:00.497Z,6.73
2018-04-01T04:49:59.942Z,6.77
2018-04-01T04:50:59.923Z,6.71
2018-04-01T04:51:59.903Z,6.69
2018-04-01T04:53:00.150Z,6.68
2018-04-01T04:54:00.126Z,6.58
2018-04-01T04:54:59.839Z,6.61
2018-04-01T04:56:00.083Z,6.59
2018-04-01T04:57:00.471Z,6.61
2018-04-01T04:58:00.328Z,6.56
2018-04-01T04:59:00.045Z,6.66
2018-04-01T04:59:59.830Z,6.62
2018-04-01T05:01:00.264Z,6.71
2018-04-01T05:02:00.240Z,6.79
2018-04-01T05:03:00.326Z,6.72
2018-04-01T05:03:59.998Z,6.72
2018-04-01T05:05:00.259Z,6.77
2018-04-01T05:06:00.271Z,6.76
2018-04-01T05:06:59.907Z,6.77
2018-04-01T05:08:00.126Z,6.77
2018-04-01T05:09:00.247Z,6.79
2018-04-01T05:10:00.110Z,6.79
2018-04-01T05:11:00.290Z,6.83
2018-04-01T05:11:59.823Z,6.77
2018-04-01T05:12:59.847Z,6.8
2018-04-01T05:13:59.752Z,6.81
2018-04-01T05:15:00.043Z,6.87
2018-04-01T05:15:59.766Z,6.84
2018-04-01T05:16:59.756Z,6.81
2018-04-01T05:17:59.710Z,6.79
2018-04-01T05:18:59.650Z,6.86
2018-04-01T05:19:59.473Z,6.89
2018-04-01T05:20:59.620Z,6.84
2018-04-01T05:21:59.882Z,6.79
2018-04-01T05:22:59.638Z,6.8
2018-04-01T05:23:59.854Z,6.84
2018-04-01T05:24:59.915Z,6.83
2018-04-01T05:25:59.747Z,6.9
2018-04-01T05:26:59.781Z,6.81
2018-04-01T05:27:59.519Z,6.9
2018-04-01T05:28:59.501Z,6.91
2018-04-01T05:29:59.441Z,6.87
2018-04-01T05:30:59.747Z,6.91
2018-04-01T05:31:59.672Z,6.84
2018-04-01T05:32:59.701Z,6.86
2018-04-01T05:33:59.634Z,6.9
2018-04-01T05:34:59.341Z,6.89
2018-04-01T05:35:59.358Z,6.94
2018-04-01T05:36:59.579Z,6.91
2018-04-01T05:37:59.558Z,6.86
2018-04-01T05:38:59.262Z,6.87
2018-04-01T05:39:59.256Z,6.86
2018-04-01T05:40:59.253Z,6.84
2018-04-01T05:41:59.212Z,6.83
2018-04-01T05:42:59.479Z,6.81
2018-04-01T05:43:59.456Z,6.86
2018-04-01T05:44:58.896Z,6.9
2018-04-01T05:45:59.139Z,6.94
2018-04-01T05:46:59.169Z,6.95
2018-04-01T05:47:59.375Z,6.98
2018-04-01T05:48:59.336Z,6.9
2018-04-01T05:49:59.318Z,6.94
2018-04-01T05:50:59.119Z,6.91
2018-04-01T05:51:59.017Z,6.95
2018-04-01T05:52:59.000Z,7.01
2018-04-01T05:53:58.711Z,6.98
2018-04-01T05:54:58.700Z,6.99
2018-04-01T05:55:58.704Z,6.91
2018-04-01T05:56:59.183Z,6.98
2018-04-01T05:57:58.962Z,7.02
2018-04-01T05:58:58.615Z,6.94
2018-04-01T05:59:59.141Z,6.99
2018-04-01T06:00:58.841Z,6.99
2018-04-01T06:01:59.098Z,6.98
2018-04-01T06:02:58.812Z,6.99
2018-04-01T06:03:59.060Z,6.94
2018-04-01T06:04:58.780Z,6.99
2018-04-01T06:05:58.747Z,6.86
2018-04-01T06:06:58.462Z,6.97
2018-04-01T06:07:58.838Z,6.87
2018-04-01T06:08:58.957Z,6.95
2018-04-01T06:09:58.873Z,6.99
2018-04-01T06:10:58.918Z,7.01
2018-04-01T06:11:58.898Z,6.97
2018-04-01T06:12:58.615Z,7.04
2018-04-01T06:13:58.598Z,6.97
2018-04-01T06:14:58.855Z,7.12
2018-04-01T06:15:58.823Z,6.97
2018-04-01T06:16:58.815Z,7.02
2018-04-01T06:17:58.515Z,6.91
2018-04-01T06:18:58.281Z,6.99
2018-04-01T06:19:58.477Z,6.99
2018-04-01T06:20:58.725Z,6.97
2018-04-01T06:21:58.439Z,7.01
2018-04-01T06:22:58.420Z,6.89
2018-04-01T06:23:58.135Z,6.84
2018-04-01T06:24:58.119Z,6.91
2018-04-01T06:25:58.371Z,6.84
2018-04-01T06:26:58.614Z,6.9
2018-04-01T06:27:58.748Z,6.84
2018-04-01T06:28:58.571Z,6.83
2018-04-01T06:29:58.323Z,6.86
2018-04-01T06:30:58.586Z,6.83
2018-04-01T06:31:58.254Z,6.87
2018-04-01T06:32:57.964Z,6.79
2018-04-01T06:33:58.499Z,6.86
2018-04-01T06:34:58.462Z,6.86
2018-04-01T06:35:58.484Z,6.76
2018-04-01T06:36:58.458Z,6.86
2018-04-01T06:37:58.143Z,6.84
2018-04-01T06:38:57.855Z,6.84
2018-04-01T06:39:58.223Z,6.81
2018-04-01T06:40:57.819Z,6.81
2018-04-01T06:41:57.826Z,6.77
2018-04-01T06:42:57.785Z,6.8
2018-04-01T06:43:57.753Z,6.9
2018-04-01T06:44:58.274Z,6.83
2018-04-01T06:45:58.335Z,6.84
2018-04-01T06:46:57.968Z,6.83
2018-04-01T06:47:58.213Z,6.77
2018-04-01T06:48:57.930Z,6.86
2018-04-01T06:49:58.182Z,6.86
2018-04-01T06:50:58.150Z,6.86
2018-04-01T06:51:57.889Z,6.9
2018-04-01T06:52:58.115Z,6.84
2018-04-01T06:53:57.827Z,6.83
2018-04-01T06:54:58.086Z,6.77
2018-04-01T06:55:57.791Z,6.84
2018-04-01T06:56:58.053Z,6.89
2018-04-01T06:57:57.485Z,6.79
2018-04-01T06:58:57.998Z,6.73
2018-04-01T06:59:57.948Z,6.86
2018-04-01T07:00:57.964Z,6.8
2018-04-01T07:01:58.221Z,6.83
2018-04-01T07:02:57.799Z,6.8
2018-04-01T07:03:57.641Z,6.72
2018-04-01T07:04:57.365Z,6.73
2018-04-01T07:05:57.918Z,6.77
2018-04-01T07:06:57.682Z,6.68
2018-04-01T07:07:57.309Z,6.68
2018-04-01T07:08:57.992Z,6.76
2018-04-01T07:09:57.526Z,6.61
2018-04-01T07:10:57.253Z,6.58
2018-04-01T07:11:57.753Z,6.63
2018-04-01T07:12:57.466Z,6.62
2018-04-01T07:13:57.231Z,6.61
2018-04-01T07:14:57.569Z,6.54
2018-04-01T07:15:57.489Z,6.54
2018-04-01T07:16:57.158Z,6.54
2018-04-01T07:17:57.704Z,6.48
2018-04-01T07:18:57.364Z,6.53
2018-04-01T07:19:57.613Z,6.51
2018-04-01T07:20:57.463Z,6.56
2018-04-01T07:21:57.681Z,6.54
2018-04-01T07:22:57.289Z,6.54
2018-04-01T07:23:57.255Z,6.48
2018-04-01T07:24:57.590Z,6.5
2018-04-01T07:25:57.478Z,6.48
2018-04-01T07:26:56.930Z,6.5
2018-04-01T07:27:57.463Z,6.56
2018-04-01T07:28:57.155Z,6.59
2018-04-01T07:29:57.409Z,6.48
2018-04-01T07:30:57.123Z,6.33
2018-04-01T07:31:57.107Z,6.33
2018-04-01T07:32:57.078Z,6.4
2018-04-01T07:33:56.800Z,6.36
2018-04-01T07:34:57.317Z,6.41
2018-04-01T07:35:57.029Z,6.33
2018-04-01T07:36:57.008Z,6.33
2018-04-01T07:37:57.289Z,6.3
2018-04-01T07:38:57.256Z,6.3
2018-04-01T07:39:57.323Z,6.32
2018-04-01T07:40:57.193Z,6.32
2018-04-01T07:41:56.656Z,6.29
2018-04-01T07:42:56.882Z,6.28
2018-04-01T07:43:56.597Z,6.32
2018-04-01T07:44:57.106Z,6.3
2018-04-01T07:45:56.847Z,6.22
2018-04-01T07:46:56.804Z,6.21
2018-04-01T07:47:56.971Z,6.13
2018-04-01T07:48:56.761Z,6.16
2018-04-01T07:49:56.746Z,6.22
2018-04-01T07:50:56.724Z,6.14
2018-04-01T07:51:56.992Z,6.11
2018-04-01T07:52:56.724Z,6.18
2018-04-01T07:53:56.402Z,6.16
2018-04-01T07:54:56.685Z,6.14
2018-04-01T07:55:56.894Z,6.14
2018-04-01T07:56:56.881Z,6.14
2018-04-01T07:57:56.861Z,6.1
2018-04-01T07:58:56.585Z,6.13
2018-04-01T07:59:56.620Z,6.1
2018-04-01T08:00:56.797Z,6.19
2018-04-01T08:01:56.242Z,6.1
2018-04-01T08:02:56.502Z,6.14
2018-04-01T08:03:56.741Z,6.14
2018-04-01T08:04:56.465Z,6.13
2018-04-01T08:05:56.703Z,6.13
2018-04-01T08:06:56.677Z,6.16
2018-04-01T08:07:56.123Z,6.22
2018-04-01T08:08:56.642Z,6.32
2018-04-01T08:09:56.759Z,6.21
2018-04-01T08:10:56.619Z,6.22
2018-04-01T08:11:56.043Z,6.26
2018-04-01T08:12:56.473Z,6.32
2018-04-01T08:13:56.292Z,6.26
2018-04-01T08:14:56.644Z,6.29
2018-04-01T08:15:56.368Z,6.33
2018-04-01T08:16:56.212Z,6.33
2018-04-01T08:17:56.202Z,6.29
2018-04-01T08:18:56.209Z,6.32
2018-04-01T08:19:56.178Z,6.32
2018-04-01T08:20:56.410Z,6.26
2018-04-01T08:21:56.390Z,6.3
2018-04-01T08:22:55.834Z,6.26
2018-04-01T08:23:56.347Z,6.18
2018-04-01T08:24:56.332Z,6.22
2018-04-01T08:25:56.048Z,6.19
2018-04-01T08:26:56.284Z,6.22
2018-04-01T08:27:56.006Z,6.22
2018-04-01T08:28:56.245Z,6.18
2018-04-01T08:29:56.234Z,6.21
2018-04-01T08:30:55.949Z,6.19
2018-04-01T08:31:55.925Z,6.22
2018-04-01T08:32:56.167Z,6.07
2018-04-01T08:33:56.146Z,6.1
2018-04-01T08:34:55.868Z,6.14
2018-04-01T08:35:56.122Z,6.11
2018-04-01T08:36:56.093Z,6.11
2018-04-01T08:37:56.121Z,6.18
2018-04-01T08:38:55.782Z,6.07
2018-04-01T08:39:55.767Z,6.1
2018-04-01T08:40:56.025Z,6.1
2018-04-01T08:41:56.004Z,6.1
2018-04-01T08:42:55.970Z,6.14
2018-04-01T08:43:55.964Z,6.19
2018-04-01T08:44:55.942Z,6.16
2018-04-01T08:45:55.906Z,6.19
2018-04-01T08:46:55.896Z,6.3
2018-04-01T08:47:55.605Z,6.25
2018-04-01T08:48:55.867Z,6.28
2018-04-01T08:49:55.358Z,6.21
2018-04-01T08:50:55.550Z,6.18
2018-04-01T08:51:55.547Z,6.18
2018-04-01T08:52:55.511Z,6.21
2018-04-01T08:53:55.782Z,6.25
2018-04-01T08:54:55.664Z,6.25
2018-04-01T08:55:55.192Z,6.25
2018-04-01T08:56:55.451Z,6.1
2018-04-01T08:57:55.411Z,6.1
2018-04-01T08:58:55.669Z,6.14
2018-04-01T08:59:55.311Z,6.13
2018-04-01T09:00:55.358Z,6.11
2018-04-01T09:01:55.408Z,6.25
2018-04-01T09:02:55.318Z,6.18
2018-04-01T09:03:55.646Z,6.21
2018-04-01T09:04:55.602Z,6.26
2018-04-01T09:05:55.270Z,6.3
2018-04-01T09:06:54.977Z,6.29
2018-04-01T09:07:55.550Z,6.3
2018-04-01T09:08:55.214Z,6.28
2018-04-01T09:09:55.192Z,6.35
2018-04-01T09:10:55.432Z,6.43
2018-04-01T09:11:55.348Z,6.48
2018-04-01T09:12:55.125Z,6.5
2018-04-01T09:13:55.376Z,6.53
2018-04-01T09:14:55.428Z,6.61
2018-04-01T09:15:55.456Z,6.53
2018-04-01T09:16:55.383Z,6.61
2018-04-01T09:17:55.023Z,6.61
2018-04-01T09:18:55.367Z,6.66
2018-04-01T09:19:55.257Z,6.65
2018-04-01T09:20:54.967Z,6.73
2018-04-01T09:21:54.989Z,6.72
2018-04-01T09:22:55.288Z,6.76
2018-04-01T09:23:54.645Z,6.79
2018-04-01T09:24:54.621Z,6.77
2018-04-01T09:25:54.880Z,6.77
2018-04-01T09:26:54.849Z,6.8
2018-04-01T09:27:54.834Z,6.73
2018-04-01T09:28:55.083Z,6.79
2018-04-01T09:29:54.794Z,6.84
2018-04-01T09:30:54.512Z,6.84
2018-04-01T09:31:54.831Z,6.87
2018-04-01T09:32:54.471Z,6.99
2018-04-01T09:33:54.720Z,6.98
2018-04-01T09:34:54.703Z,6.94
2018-04-01T09:35:54.944Z,6.99
2018-04-01T09:36:54.822Z,7.01
2018-04-01T09:37:55.129Z,7.04
2018-04-01T09:38:54.983Z,6.97
2018-04-01T09:39:54.337Z,7.05
2018-04-01T09:40:54.592Z,7.05
2018-04-01T09:41:54.693Z,7.17
2018-04-01T09:42:54.285Z,7.22
2018-04-01T09:43:54.808Z,7.26
2018-04-01T09:44:54.248Z,7.35
2018-04-01T09:45:54.762Z,7.55
2018-04-01T09:46:54.932Z,7.66
2018-04-01T09:47:54.726Z,7.67
2018-04-01T09:48:54.440Z,7.77
2018-04-01T09:49:54.444Z,7.9
2018-04-01T09:50:54.403Z,7.84
2018-04-01T09:51:54.123Z,7.96
2018-04-01T09:52:54.635Z,8.03
2018-04-01T09:53:54.092Z,8.04
2018-04-01T09:54:54.332Z,8.1
2018-04-01T09:55:54.554Z,8.03
2018-04-01T09:56:54.737Z,8.14
2018-04-01T09:57:54.014Z,8.17
2018-04-01T09:58:54.001Z,8.11
2018-04-01T09:59:54.406Z,8.12
2018-04-01T10:00:54.229Z,8.22
2018-04-01T10:01:54.456Z,8.33
2018-04-01T10:02:54.194Z,8.42
2018-04-01T10:03:54.185Z,8.55
2018-04-01T10:04:53.894Z,8.55
2018-04-01T10:05:54.406Z,8.75
2018-04-01T10:06:54.170Z,8.9
2018-04-01T10:07:54.379Z,8.76
2018-04-01T10:08:54.432Z,8.68
2018-04-01T10:09:54.343Z,8.75
2018-04-01T10:10:54.066Z,8.79
2018-04-01T10:11:54.320Z,8.88
2018-04-01T10:12:54.300Z,8.84
2018-04-01T10:13:54.013Z,8.86
2018-04-01T10:14:53.996Z,8.94
2018-04-01T10:15:53.981Z,9.06
2018-04-01T10:16:53.972Z,9.1
2018-04-01T10:17:54.052Z,9.23
2018-04-01T10:18:54.217Z,9.3
2018-04-01T10:19:53.952Z,9.4
2018-04-01T10:20:54.167Z,9.39
2018-04-01T10:21:53.892Z,9.35
2018-04-01T10:22:54.154Z,9.34
2018-04-01T10:23:53.929Z,9.02
2018-04-01T10:24:53.889Z,9.04
2018-04-01T10:25:53.832Z,8.96
2018-04-01T10:26:54.101Z,8.58
2018-04-01T10:27:53.876Z,8.73
2018-04-01T10:28:53.592Z,8.73
2018-04-01T10:29:54.075Z,8.86
2018-04-01T10:30:53.857Z,8.86
2018-04-01T10:31:54.030Z,8.96
2018-04-01T10:32:53.723Z,9.15
2018-04-01T10:33:53.729Z,9.38
2018-04-01T10:34:53.696Z,9.39
2018-04-01T10:35:53.678Z,9.43
2018-04-01T10:36:53.413Z,9.56
2018-04-01T10:37:53.692Z,9.6
2018-04-01T10:38:53.646Z,9.43
2018-04-01T10:39:53.639Z,9.45
2018-04-01T10:40:53.344Z,9.48
2018-04-01T10:41:53.602Z,9.66
2018-04-01T10:42:54.166Z,9.6
2018-04-01T10:43:53.605Z,9.39
2018-04-01T10:44:53.817Z,9.4
2018-04-01T10:45:53.566Z,9.53
2018-04-01T10:46:53.524Z,9.58
2018-04-01T10:47:53.781Z,9.83
2018-04-01T10:48:53.537Z,9.89
2018-04-01T10:49:53.484Z,9.94
2018-04-01T10:50:53.748Z,10.06
2018-04-01T10:51:53.471Z,10.03
2018-04-01T10:52:53.443Z,10.3
2018-04-01T10:53:53.699Z,10.36
2018-04-01T10:54:53.671Z,10.55
2018-04-01T10:55:53.658Z,10.59
2018-04-01T10:56:53.115Z,10.74
2018-04-01T10:57:53.390Z,10.73
2018-04-01T10:58:53.628Z,10.76
2018-04-01T10:59:53.360Z,10.8
2018-04-01T11:00:53.323Z,10.71
2018-04-01T11:01:53.043Z,10.8
2018-04-01T11:02:53.398Z,10.63
2018-04-01T11:03:53.070Z,10.74
2018-04-01T11:04:53.012Z,10.66
2018-04-01T11:05:52.994Z,10.66
2018-04-01T11:06:53.249Z,10.73
2018-04-01T11:07:53.242Z,10.83
2018-04-01T11:08:53.488Z,10.81
2018-04-01T11:09:53.277Z,10.92
2018-04-01T11:10:53.200Z,10.98
2018-04-01T11:11:53.181Z,11.06
2018-04-01T11:12:53.165Z,11.03
2018-04-01T11:13:53.167Z,11.02
2018-04-01T11:14:53.142Z,10.94
2018-04-01T11:15:53.130Z,10.94
2018-04-01T11:16:53.431Z,10.73
2018-04-01T11:17:53.112Z,10.7
2018-04-01T11:18:53.093Z,10.56
2018-04-01T11:19:53.096Z,10.53
2018-04-01T11:20:53.100Z,10.52
2018-04-01T11:21:53.327Z,10.44
2018-04-01T11:22:52.785Z,10.4
2018-04-01T11:23:52.771Z,10.21
2018-04-01T11:24:53.011Z,10.26
2018-04-01T11:25:53.011Z,10.25
2018-04-01T11:26:53.105Z,10.28
2018-04-01T11:27:53.247Z,10.28
2018-04-01T11:28:53.257Z,10.25
2018-04-01T11:29:53.220Z,10.28
2018-04-01T11:30:52.720Z,10.25
2018-04-01T11:31:52.786Z,10.19
2018-04-01T11:32:53.169Z,10.1
2018-04-01T11:33:53.172Z,10.06
2018-04-01T11:34:52.878Z,10.04
2018-04-01T11:35:52.605Z,10.21
2018-04-01T11:36:52.843Z,10.07
2018-04-01T11:37:52.845Z,10.18
2018-04-01T11:38:53.102Z,10.21
2018-04-01T11:39:52.822Z,10.4
2018-04-01T11:40:53.074Z,10.42
2018-04-01T11:41:53.076Z,10.53
2018-04-01T11:42:53.033Z,10.58
2018-04-01T11:43:52.764Z,10.66
2018-04-01T11:44:52.741Z,10.68
2018-04-01T11:45:52.724Z,10.74
2018-04-01T11:46:52.715Z,10.7
2018-04-01T11:47:52.709Z,10.58
2018-04-01T11:48:52.951Z,10.43
2018-04-01T11:49:52.980Z,10.37
2018-04-01T11:50:52.395Z,10.33
2018-04-01T11:51:52.682Z,10.17
2018-04-01T11:52:52.635Z,10.17
2018-04-01T11:53:52.659Z,10.22
2018-04-01T11:54:52.880Z,10.03
2018-04-01T11:55:52.592Z,10.03
2018-04-01T11:56:52.657Z,9.96
2018-04-01T11:57:52.564Z,9.93
2018-04-01T11:58:52.918Z,9.93
2018-04-01T11:59:52.538Z,9.91
2018-04-01T12:00:52.710Z,10.01
2018-04-01T12:01:52.515Z,9.94
2018-04-01T12:02:52.278Z,9.89
2018-04-01T12:03:52.205Z,9.86
2018-04-01T12:04:52.193Z,9.79
2018-04-01T12:05:52.180Z,9.75
2018-04-01T12:06:52.437Z,9.68
2018-04-01T12:07:52.434Z,9.73
2018-04-01T12:08:52.795Z,9.6
2018-04-01T12:09:52.404Z,9.64
2018-04-01T12:10:52.312Z,9.56
2018-04-01T12:11:52.362Z,9.52
2018-04-01T12:12:52.403Z,9.46
2018-04-01T12:13:52.339Z,9.53
2018-04-01T12:14:52.447Z,9.45
2018-04-01T12:15:52.025Z,9.42
2018-04-01T12:16:52.600Z,9.48
2018-04-01T12:17:52.265Z,9.46
2018-04-01T12:18:52.242Z,9.32
2018-04-01T12:19:52.237Z,9.28
2018-04-01T12:20:52.222Z,9.25
2018-04-01T12:21:52.466Z,9.32
2018-04-01T12:22:52.176Z,9.31
2018-04-01T12:23:52.166Z,9.31
2018-04-01T12:24:51.885Z,9.3
2018-04-01T12:25:51.865Z,9.28
2018-04-01T12:26:52.207Z,9.28
2018-04-01T12:27:51.843Z,9.23
2018-04-01T12:28:52.369Z,9.27
2018-04-01T12:29:52.343Z,9.24
2018-04-01T12:30:52.323Z,9.28
2018-04-01T12:31:52.338Z,9.25
2018-04-01T12:32:52.312Z,9.31
2018-04-01T12:33:52.008Z,9.31
2018-04-01T12:34:51.725Z,9.23
2018-04-01T12:35:52.238Z,9.31
2018-04-01T12:36:52.285Z,9.25
2018-04-01T12:37:51.947Z,9.23
2018-04-01T12:38:51.994Z,9.24
2018-04-01T12:39:51.903Z,9.18
2018-04-01T12:40:52.038Z,9.13
2018-04-01T12:41:51.883Z,8.88
2018-04-01T12:42:51.871Z,8.94
2018-04-01T12:43:51.853Z,8.96
2018-04-01T12:44:51.830Z,8.87
2018-04-01T12:45:51.848Z,8.96
2018-04-01T12:46:52.060Z,8.94
2018-04-01T12:47:51.515Z,8.96
2018-04-01T12:48:52.026Z,8.97
2018-04-01T12:49:51.782Z,8.93
2018-04-01T12:50:51.738Z,9.04
2018-04-01T12:51:52.038Z,8.91
2018-04-01T12:52:51.696Z,8.87
2018-04-01T12:53:51.683Z,8.91
2018-04-01T12:54:51.400Z,8.88
2018-04-01T12:55:51.915Z,8.96
2018-04-01T12:56:51.633Z,8.9
2018-04-01T12:57:51.663Z,8.99
2018-04-01T12:58:51.864Z,8.96
2018-04-01T12:59:51.673Z,8.97
2018-04-01T13:00:51.832Z,8.88
2018-04-01T13:01:51.984Z,9.02
2018-04-01T13:02:51.650Z,9.09
2018-04-01T13:03:51.551Z,9.12
2018-04-01T13:04:51.540Z,8.99
2018-04-01T13:05:51.221Z,8.91
2018-04-01T13:06:51.727Z,8.94
2018-04-01T13:07:51.633Z,8.96
2018-04-01T13:08:51.733Z,8.93
2018-04-01T13:09:51.685Z,8.91
2018-04-01T13:10:51.141Z,8.83
2018-04-01T13:11:51.658Z,8.86
2018-04-01T13:12:51.373Z,8.83
2018-04-01T13:13:51.696Z,8.86
2018-04-01T13:14:51.369Z,8.9
2018-04-01T13:15:51.323Z,8.86
2018-04-01T13:16:51.621Z,8.94
2018-04-01T13:17:51.627Z,8.86